Time;durP1;ratioP1;P1;durP2;ratioP2;P2;SDS_P1;SDS_P2;PMS_P1;PMS_P2;Temp;Humidity;BMP_temperature;BMP_pressure;BME280_temperature;BME280_humidity;BME280_pressure;Samples;Min_cycle;Max_cycle;Signal;HPM_P1;HPM_P2
2022/09/26 00:01:11;;;;;;;10.38;3.40;;;18.10;99.90;;;;;;5023044;28;20737;-79
2022/09/26 00:03:44;;;;;;;12.27;3.30;;;18.20;99.90;;;;;;5021510;28;20274;-80
2022/09/26 00:06:17;;;;;;;6.88;2.92;;;18.10;99.90;;;;;;5019822;28;20200;-79
2022/09/26 00:08:48;;;;;;;5.45;3.05;;;18.10;99.90;;;;;;5020560;28;20575;-80
2022/09/26 00:11:21;;;;;;;7.07;2.58;;;18.20;99.90;;;;;;5020754;28;20631;-79
2022/09/26 00:13:54;;;;;;;5.60;2.65;;;18.20;99.90;;;;;;5021979;28;20200;-79
2022/09/26 00:16:26;;;;;;;9.70;2.90;;;18.10;99.90;;;;;;5026800;28;20208;-80
2022/09/26 00:18:59;;;;;;;6.50;2.47;;;18.00;99.90;;;;;;5023577;28;20309;-80
2022/09/26 00:21:32;;;;;;;9.13;2.67;;;18.00;99.90;;;;;;5019444;28;20603;-79
2022/09/26 00:24:04;;;;;;;7.35;2.80;;;18.00;99.90;;;;;;5020997;28;20735;-79
2022/09/26 00:26:36;;;;;;;10.48;2.65;;;17.90;99.90;;;;;;5019531;28;20361;-80
2022/09/26 00:29:09;;;;;;;4.88;2.25;;;17.90;99.90;;;;;;5020914;28;20224;-79
2022/09/26 00:31:42;;;;;;;8.43;2.72;;;18.00;99.90;;;;;;5019385;28;20668;-79
2022/09/26 00:34:14;;;;;;;6.68;2.50;;;18.10;99.90;;;;;;5020673;28;20206;-79
2022/09/26 00:36:47;;;;;;;5.50;2.25;;;18.10;99.90;;;;;;5027237;28;20201;-79
2022/09/26 00:39:20;;;;;;;5.88;2.25;;;18.00;99.90;;;;;;5036338;28;20204;-79
2022/09/26 00:41:50;;;;;;;8.77;2.90;;;18.10;99.90;;;;;;5035644;28;20233;-80
2022/09/26 00:44:49;;;;;;;3.00;1.90;;;18.20;99.90;;;;;;5035782;28;20204;-79
2022/09/26 00:47:40;;;;;;;6.43;2.22;;;18.20;99.90;;;;;;5036313;28;20200;-79
2022/09/26 00:50:17;;;;;;;5.22;2.30;;;18.20;99.90;;;;;;5047310;28;20217;-79
2022/09/26 00:52:54;;;;;;;8.65;2.53;;;18.40;99.90;;;;;;5039510;28;20200;-77
2022/09/26 00:55:30;;;;;;;5.45;2.20;;;18.50;99.90;;;;;;5034932;28;20290;-78
2022/09/26 00:58:07;;;;;;;6.00;1.90;;;18.50;99.90;;;;;;5036508;28;20232;-76
2022/09/26 01:00:38;;;;;;;5.75;2.40;;;18.70;99.90;;;;;;5039519;28;20193;-77
2022/09/26 01:03:10;;;;;;;7.38;2.60;;;18.90;99.90;;;;;;5041846;28;20197;-77
2022/09/26 01:05:42;;;;;;;9.63;2.30;;;19.10;99.90;;;;;;5046385;28;20216;-77
2022/09/26 01:08:16;;;;;;;7.95;2.35;;;19.30;99.90;;;;;;5045067;28;20185;-77
2022/09/26 01:10:49;;;;;;;9.05;2.38;;;19.30;99.90;;;;;;5043501;28;20211;-77
2022/09/26 01:13:21;;;;;;;7.55;2.40;;;19.50;99.90;;;;;;5043544;28;20231;-78
2022/09/26 01:15:52;;;;;;;5.22;2.72;;;19.70;99.90;;;;;;5041003;28;20251;-78
2022/09/26 01:18:23;;;;;;;4.65;2.53;;;19.90;99.90;;;;;;5045688;28;20232;-78
2022/09/26 01:21:00;;;;;;;9.30;2.72;;;20.10;99.90;;;;;;5046667;28;20266;-77
2022/09/26 01:24:03;;;;;;;8.32;2.97;;;20.10;99.90;;;;;;5042834;28;20196;-78
2022/09/26 01:27:12;;;;;;;5.85;2.88;;;20.20;99.90;;;;;;5042748;28;20269;-76
2022/09/26 01:30:08;;;;;;;7.32;2.67;;;20.30;99.90;;;;;;5042530;28;20319;-77
2022/09/26 01:33:13;;;;;;;5.35;2.53;;;20.60;99.90;;;;;;5042306;28;20213;-78
2022/09/26 01:36:06;;;;;;;5.10;2.40;;;20.50;99.90;;;;;;5051040;28;20275;-78
2022/09/26 01:38:46;;;;;;;5.90;2.00;;;20.70;99.90;;;;;;5057893;28;20224;-77
2022/09/26 01:41:41;;;;;;;6.88;2.38;;;20.80;99.90;;;;;;5069762;28;20200;-78
2022/09/26 01:44:27;;;;;;;5.03;2.03;;;20.90;99.90;;;;;;5067148;28;20211;-79
2022/09/26 01:47:06;;;;;;;5.15;1.70;;;21.10;99.90;;;;;;5064552;28;20205;-78
2022/09/26 01:49:45;;;;;;;4.75;1.55;;;21.20;99.90;;;;;;5046889;28;20200;-78
2022/09/26 01:52:20;;;;;;;4.55;1.80;;;21.20;99.90;;;;;;5045682;28;20197;-78
2022/09/26 01:54:57;;;;;;;18.92;2.40;;;21.20;99.90;;;;;;5046006;28;20293;-78
2022/09/26 01:57:32;;;;;;;6.30;1.65;;;21.20;99.90;;;;;;5044648;28;20201;-79
2022/09/26 02:00:08;;;;;;;6.72;1.92;;;21.20;99.90;;;;;;5050022;28;20199;-79
2022/09/26 02:02:44;;;;;;;6.60;2.20;;;21.30;99.90;;;;;;5052200;28;20214;-79
2022/09/26 02:05:21;;;;;;;4.47;2.33;;;21.30;99.90;;;;;;5045120;28;20193;-79
2022/09/26 02:07:58;;;;;;;8.07;2.50;;;21.20;99.90;;;;;;5046086;28;20640;-80
2022/09/26 02:10:38;;;;;;;5.93;2.17;;;21.20;99.90;;;;;;5045648;28;20210;-79
2022/09/26 02:13:14;;;;;;;5.32;2.13;;;21.20;99.90;;;;;;5039124;28;20198;-79
2022/09/26 02:15:49;;;;;;;6.90;2.28;;;21.30;99.90;;;;;;5025687;28;20203;-79
2022/09/26 02:18:30;;;;;;;6.40;2.05;;;21.40;99.90;;;;;;5026540;28;20223;-80
2022/09/26 02:21:08;;;;;;;3.75;1.58;;;21.50;99.90;;;;;;5026018;28;20740;-80
2022/09/26 02:23:39;;;;;;;6.35;2.00;;;21.60;99.90;;;;;;5023519;28;20211;-81
2022/09/26 02:26:10;;;;;;;4.10;1.70;;;21.50;99.90;;;;;;5024242;28;20197;-80
2022/09/26 02:28:40;;;;;;;2.70;1.55;;;21.60;99.90;;;;;;5024026;28;20660;-80
2022/09/26 02:31:13;;;;;;;3.25;1.50;;;21.60;99.90;;;;;;5024109;28;20568;-80
2022/09/26 02:33:45;;;;;;;5.30;1.38;;;21.60;99.90;;;;;;5023628;28;22173;-80
2022/09/26 02:36:16;;;;;;;6.53;1.80;;;21.50;99.90;;;;;;5023767;28;20206;-80
2022/09/26 02:38:47;;;;;;;4.55;1.90;;;21.30;99.90;;;;;;5023637;28;20220;-80
2022/09/26 02:41:29;;;;;;;5.45;2.08;;;21.20;99.90;;;;;;5024080;28;20193;-81
2022/09/26 02:44:21;;;;;;;6.35;1.77;;;21.00;99.90;;;;;;5022057;28;20297;-79
2022/09/26 02:47:22;;;;;;;2.67;1.67;;;20.90;99.90;;;;;;5022462;28;20258;-80
2022/09/26 02:50:21;;;;;;;4.25;1.58;;;20.80;99.90;;;;;;5023164;28;20197;-81
2022/09/26 02:53:03;;;;;;;4.68;1.58;;;21.00;99.90;;;;;;5025385;28;20205;-80
2022/09/26 02:55:44;;;;;;;3.85;1.50;;;21.00;99.90;;;;;;5023415;28;20205;-80
2022/09/26 02:58:21;;;;;;;4.78;2.10;;;21.00;99.90;;;;;;5023889;28;20229;-81
2022/09/26 03:01:00;;;;;;;2.55;1.30;;;21.00;99.90;;;;;;5024560;28;20201;-81
2022/09/26 03:03:37;;;;;;;2.15;1.30;;;21.10;99.90;;;;;;5023891;28;20196;-80
2022/09/26 03:06:11;;;;;;;2.75;1.40;;;21.00;99.90;;;;;;5024308;28;20329;-81
2022/09/26 03:08:48;;;;;;;2.75;1.20;;;21.10;99.90;;;;;;5030125;28;20211;-78
2022/09/26 03:11:21;;;;;;;2.95;1.10;;;20.90;99.90;;;;;;5052182;28;20277;-80
2022/09/26 03:13:57;;;;;;;4.88;1.35;;;20.70;99.90;;;;;;5043930;28;20233;-81
2022/09/26 03:16:32;;;;;;;4.13;1.40;;;20.80;99.90;;;;;;5042652;28;20710;-80
2022/09/26 03:19:10;;;;;;;2.50;1.30;;;20.80;99.90;;;;;;5046953;28;20233;-81
2022/09/26 03:21:43;;;;;;;3.85;1.27;;;20.90;99.90;;;;;;5047629;28;20204;-79
2022/09/26 03:24:17;;;;;;;3.40;1.30;;;20.90;99.90;;;;;;5043784;28;20201;-80
2022/09/26 03:26:49;;;;;;;2.97;1.48;;;20.80;99.90;;;;;;5034995;28;22682;-80
2022/09/26 03:29:20;;;;;;;3.95;1.40;;;20.80;99.90;;;;;;5022645;28;20224;-81
2022/09/26 03:31:51;;;;;;;4.22;1.83;;;20.70;99.90;;;;;;5022434;28;20350;-78
2022/09/26 03:34:22;;;;;;;3.58;1.63;;;20.60;99.90;;;;;;5023631;28;20193;-79
2022/09/26 03:36:53;;;;;;;5.43;1.60;;;20.60;99.90;;;;;;5022533;28;20279;-79
2022/09/26 03:39:25;;;;;;;6.07;1.50;;;20.50;99.90;;;;;;5022058;28;20290;-79
2022/09/26 03:41:57;;;;;;;5.18;1.40;;;20.60;99.90;;;;;;5022151;28;21593;-80
2022/09/26 03:44:27;;;;;;;3.95;1.35;;;20.80;99.90;;;;;;5030000;28;20209;-79
2022/09/26 03:46:58;;;;;;;4.05;1.67;;;21.00;99.90;;;;;;5022955;28;20205;-80
2022/09/26 03:49:29;;;;;;;3.78;1.30;;;21.40;99.90;;;;;;5021825;28;20204;-80
2022/09/26 03:52:00;;;;;;;2.63;1.30;;;21.40;99.90;;;;;;5023990;28;20201;-80
2022/09/26 03:54:32;;;;;;;3.75;1.50;;;21.50;99.90;;;;;;5024376;28;20677;-79
2022/09/26 03:57:03;;;;;;;4.25;1.40;;;21.50;99.90;;;;;;5023458;28;21053;-79
2022/09/26 03:59:34;;;;;;;4.32;1.50;;;21.70;99.90;;;;;;5023260;28;20734;-80
2022/09/26 04:02:04;;;;;;;3.40;1.40;;;21.70;99.90;;;;;;5024323;28;20251;-81
2022/09/26 04:04:35;;;;;;;3.70;1.40;;;21.80;99.90;;;;;;5021758;28;20688;-79
2022/09/26 04:07:07;;;;;;;2.75;1.42;;;21.90;99.90;;;;;;5022655;28;20201;-80
2022/09/26 04:09:41;;;;;;;2.30;1.35;;;21.70;99.90;;;;;;5024217;28;20200;-80
2022/09/26 04:12:14;;;;;;;2.72;1.30;;;21.60;99.90;;;;;;5022255;28;20200;-81
2022/09/26 04:14:44;;;;;;;5.47;1.60;;;21.40;99.90;;;;;;5023797;28;22002;-81
2022/09/26 04:17:15;;;;;;;3.60;1.42;;;21.20;99.90;;;;;;5035929;28;20196;-80
2022/09/26 04:19:46;;;;;;;2.83;1.50;;;21.40;99.90;;;;;;5041586;28;20282;-81
2022/09/26 04:22:17;;;;;;;3.72;1.33;;;21.60;99.90;;;;;;5022249;28;20205;-80
2022/09/26 04:24:50;;;;;;;4.38;1.38;;;21.70;99.90;;;;;;5022471;28;20209;-80
2022/09/26 04:27:21;;;;;;;2.40;1.35;;;21.80;99.90;;;;;;5021102;28;20850;-79
2022/09/26 04:29:51;;;;;;;2.60;1.23;;;21.80;99.90;;;;;;5022054;28;20201;-80
2022/09/26 04:32:22;;;;;;;3.20;1.30;;;21.80;99.90;;;;;;5022332;28;20224;-79
2022/09/26 04:34:53;;;;;;;2.00;1.40;;;21.70;99.90;;;;;;5023376;28;20204;-80
2022/09/26 04:37:24;;;;;;;2.28;1.20;;;21.70;99.90;;;;;;5024808;28;20200;-80
2022/09/26 04:39:56;;;;;;;2.60;1.15;;;21.60;99.90;;;;;;5023629;28;20224;-80
2022/09/26 04:42:27;;;;;;;2.03;1.25;;;21.60;99.90;;;;;;5020695;28;20204;-81
2022/09/26 04:44:58;;;;;;;2.28;1.13;;;21.50;99.90;;;;;;5021798;28;20293;-79
2022/09/26 04:47:28;;;;;;;3.25;1.40;;;21.50;99.90;;;;;;5021134;28;20197;-80
2022/09/26 04:49:59;;;;;;;4.22;1.65;;;21.40;99.90;;;;;;5021627;28;20201;-80
2022/09/26 04:52:30;;;;;;;2.70;1.23;;;21.20;99.90;;;;;;5020940;28;20201;-79
2022/09/26 04:55:04;;;;;;;2.63;1.50;;;21.10;99.90;;;;;;5021421;28;20232;-80
2022/09/26 04:57:38;;;;;;;4.07;1.40;;;21.10;99.90;;;;;;5025245;28;20207;-80
2022/09/26 05:00:13;;;;;;;3.05;1.45;;;21.00;99.90;;;;;;5021445;28;20703;-80
2022/09/26 05:02:46;;;;;;;2.78;1.23;;;21.00;99.90;;;;;;5019819;28;20283;-78
2022/09/26 05:05:16;;;;;;;3.15;1.20;;;21.10;99.90;;;;;;5020927;28;20202;-79
2022/09/26 05:07:47;;;;;;;2.95;1.00;;;21.20;99.90;;;;;;5021191;28;20689;-80
2022/09/26 05:10:20;;;;;;;2.72;1.17;;;21.40;99.90;;;;;;5022447;28;21164;-81
2022/09/26 05:12:50;;;;;;;1.38;1.08;;;21.60;99.90;;;;;;5021917;28;20192;-79
2022/09/26 05:15:21;;;;;;;2.20;1.13;;;21.80;99.90;;;;;;5022166;28;20200;-79
2022/09/26 05:17:59;;;;;;;2.05;1.10;;;22.00;99.90;;;;;;5026952;28;20197;-80
2022/09/26 05:20:30;;;;;;;4.18;1.27;;;22.00;99.90;;;;;;5021668;28;20232;-79
2022/09/26 05:23:01;;;;;;;4.53;1.15;;;22.30;99.90;;;;;;5022832;28;20192;-80
2022/09/26 05:28:27;;;;;;;2.65;1.20;;;22.30;99.90;;;;;;5030330;28;20208;-80
2022/09/26 05:30:58;;;;;;;2.83;1.20;;;22.20;99.90;;;;;;5020788;28;20205;-80
2022/09/26 05:33:28;;;;;;;3.38;1.42;;;22.00;99.90;;;;;;5022384;28;20201;-80
2022/09/26 05:35:59;;;;;;;1.65;1.00;;;21.60;99.90;;;;;;5021459;28;20582;-80
2022/09/26 05:38:30;;;;;;;3.22;1.00;;;21.60;99.90;;;;;;5019816;28;20796;-80
2022/09/26 05:41:01;;;;;;;3.95;1.17;;;21.50;99.90;;;;;;5020343;28;20193;-80
2022/09/26 05:43:33;;;;;;;4.30;1.27;;;21.40;99.90;;;;;;5020151;28;20265;-81
2022/09/26 05:46:06;;;;;;;2.33;1.10;;;21.10;99.90;;;;;;5033909;28;20225;-80
2022/09/26 05:48:38;;;;;;;4.32;1.05;;;20.90;99.90;;;;;;5042290;28;20197;-80
2022/09/26 05:51:11;;;;;;;3.72;1.35;;;20.60;99.90;;;;;;5025425;28;20552;-80
2022/09/26 05:53:43;;;;;;;2.92;1.50;;;20.60;99.90;;;;;;5024565;28;20233;-79
2022/09/26 05:56:18;;;;;;;3.15;1.17;;;20.60;99.90;;;;;;5023394;28;20201;-79
2022/09/26 05:58:48;;;;;;;2.50;1.25;;;20.60;99.90;;;;;;5026106;28;20236;-79
2022/09/26 06:01:20;;;;;;;2.75;1.17;;;20.60;99.90;;;;;;5023886;28;20205;-79
2022/09/26 06:03:50;;;;;;;2.88;1.20;;;20.70;99.90;;;;;;5024163;28;20759;-80
2022/09/26 06:06:23;;;;;;;2.33;1.23;;;20.60;99.90;;;;;;5034993;28;20200;-79
2022/09/26 06:08:54;;;;;;;3.13;1.20;;;20.50;99.90;;;;;;5041214;28;20213;-80
2022/09/26 06:11:29;;;;;;;2.75;1.10;;;20.50;99.90;;;;;;5039193;28;20899;-80
2022/09/26 06:14:00;;;;;;;2.35;1.20;;;20.40;99.90;;;;;;5040939;28;20260;-78
2022/09/26 06:16:33;;;;;;;5.43;1.20;;;20.40;99.90;;;;;;5040322;28;20243;-79
2022/09/26 06:19:06;;;;;;;3.55;1.42;;;20.30;99.90;;;;;;5043433;28;20707;-79
2022/09/26 06:21:39;;;;;;;2.13;1.25;;;20.30;99.90;;;;;;5040485;28;20672;-79
2022/09/26 06:24:10;;;;;;;5.05;1.10;;;20.30;99.90;;;;;;5026310;28;20932;-80
2022/09/26 06:26:42;;;;;;;3.55;1.50;;;20.20;99.90;;;;;;5023687;28;20290;-79
2022/09/26 06:29:13;;;;;;;4.90;1.40;;;20.20;99.90;;;;;;5023130;28;20205;-79
2022/09/26 06:31:44;;;;;;;2.17;1.10;;;20.10;99.90;;;;;;5024095;28;20193;-81
2022/09/26 06:34:16;;;;;;;5.40;1.27;;;20.10;99.90;;;;;;5034464;28;20193;-80
2022/09/26 06:36:47;;;;;;;2.35;1.15;;;20.10;99.90;;;;;;5037384;28;20228;-80
2022/09/26 06:39:34;;;;;;;;;;;;;;;;;;;;;
2022/09/26 06:42:08;;;;;;;2.38;1.10;;;20.20;99.90;;;;;;5021612;28;20209;-79
2022/09/26 06:44:39;;;;;;;5.18;1.58;;;20.10;99.90;;;;;;5023050;28;20235;-79
2022/09/26 06:47:09;;;;;;;3.20;1.42;;;20.10;99.90;;;;;;5023817;28;20236;-79
2022/09/26 06:49:40;;;;;;;3.47;1.40;;;20.10;99.90;;;;;;5024102;28;20197;-79
2022/09/26 06:52:11;;;;;;;2.42;1.30;;;20.10;99.90;;;;;;5023499;28;20254;-78
2022/09/26 06:54:45;;;;;;;3.25;1.50;;;20.00;99.90;;;;;;5021796;28;20271;-78
2022/09/26 06:57:19;;;;;;;5.88;1.60;;;19.90;99.90;;;;;;5023442;28;20288;-78
2022/09/26 06:59:50;;;;;;;2.20;1.27;;;19.90;99.90;;;;;;5023534;28;20229;-79
2022/09/26 07:02:21;;;;;;;5.05;1.30;;;19.80;99.90;;;;;;5023915;28;20201;-78
2022/09/26 07:04:51;;;;;;;3.30;1.20;;;19.80;99.90;;;;;;5023335;28;20782;-79
2022/09/26 07:07:22;;;;;;;2.28;1.38;;;19.70;99.90;;;;;;5023553;28;20213;-79
2022/09/26 07:09:52;;;;;;;2.92;1.45;;;19.70;99.90;;;;;;5023226;28;20197;-79
2022/09/26 07:12:25;;;;;;;3.85;1.75;;;19.60;99.90;;;;;;5022902;28;20675;-78
2022/09/26 07:14:59;;;;;;;3.25;1.48;;;19.50;99.90;;;;;;5024795;28;20202;-79
2022/09/26 07:17:31;;;;;;;3.55;1.80;;;19.50;99.90;;;;;;5022755;28;20200;-78
2022/09/26 07:20:03;;;;;;;4.03;1.35;;;19.40;99.90;;;;;;5033144;28;20250;-78
2022/09/26 07:22:34;;;;;;;3.70;1.65;;;19.30;99.90;;;;;;5023327;28;20291;-79
2022/09/26 07:25:05;;;;;;;3.58;1.52;;;19.30;99.90;;;;;;5023892;28;20209;-79
2022/09/26 07:27:38;;;;;;;4.78;1.83;;;19.20;99.90;;;;;;5024642;28;20200;-79
2022/09/26 07:30:10;;;;;;;3.47;1.38;;;19.20;99.90;;;;;;5023643;28;20197;-80
2022/09/26 07:32:45;;;;;;;3.58;1.60;;;19.20;99.90;;;;;;5022570;28;20593;-79
2022/09/26 07:35:16;;;;;;;2.60;1.45;;;19.10;99.90;;;;;;5026710;28;20216;-79
2022/09/26 07:37:46;;;;;;;2.55;1.50;;;19.10;99.90;;;;;;5024605;28;20201;-79
2022/09/26 07:40:19;;;;;;;3.08;1.50;;;19.10;99.90;;;;;;5027528;28;20216;-80
2022/09/26 07:42:52;;;;;;;2.42;1.60;;;19.10;99.90;;;;;;5041881;28;20184;-79
2022/09/26 07:50:10;;;;;;;2.35;1.60;;;19.10;99.90;;;;;;5047114;28;20224;-77
2022/09/26 07:51:02;;;;;;;4.78;1.70;;;19.00;99.90;;;;;;5022166;28;20219;-78
2022/09/26 07:53:32;;;;;;;2.75;1.50;;;19.00;99.90;;;;;;5030843;28;20232;-79
2022/09/26 07:56:11;;;;;;;2.28;1.50;;;18.90;99.90;;;;;;5035118;28;20204;-78
2022/09/26 07:58:45;;;;;;;3.05;1.90;;;18.90;99.90;;;;;;5032509;28;20209;-79
2022/09/26 08:01:17;;;;;;;4.10;1.42;;;18.90;99.90;;;;;;5030851;28;20615;-78
2022/09/26 08:03:49;;;;;;;4.28;1.70;;;18.90;99.90;;;;;;5025167;28;20201;-77
2022/09/26 08:06:19;;;;;;;2.35;1.65;;;19.00;99.90;;;;;;5023443;28;20219;-77
2022/09/26 08:08:53;;;;;;;4.78;2.05;;;18.90;99.90;;;;;;5022397;28;20203;-78
2022/09/26 08:11:24;;;;;;;3.15;1.88;;;18.90;99.90;;;;;;5021708;28;20201;-79
2022/09/26 08:13:57;;;;;;;4.20;2.08;;;18.90;99.90;;;;;;5022409;28;20205;-79
2022/09/26 08:16:28;;;;;;;3.30;2.03;;;18.90;99.90;;;;;;5036762;28;20203;-78
2022/09/26 08:19:00;;;;;;;5.97;1.73;;;18.80;99.90;;;;;;5035639;28;20233;-78
2022/09/26 08:21:31;;;;;;;3.33;1.65;;;18.80;99.90;;;;;;5031050;28;20233;-78
2022/09/26 08:24:01;;;;;;;3.75;2.00;;;18.80;99.90;;;;;;5035162;28;20201;-78
2022/09/26 08:26:32;;;;;;;2.13;1.67;;;18.80;99.90;;;;;;5051116;28;20196;-78
2022/09/26 08:29:05;;;;;;;2.47;1.70;;;18.80;99.90;;;;;;5050007;28;20216;-80
2022/09/26 08:31:36;;;;;;;3.97;1.70;;;18.80;99.90;;;;;;5039288;28;20572;-79
2022/09/26 08:34:06;;;;;;;2.10;1.63;;;18.70;99.90;;;;;;5031648;28;20656;-78
2022/09/26 08:36:38;;;;;;;3.05;1.88;;;18.70;99.90;;;;;;5043316;28;20725;-79
2022/09/26 08:39:09;;;;;;;2.72;1.98;;;18.70;99.90;;;;;;5049834;28;20254;-79
2022/09/26 08:41:55;;;;;;;2.90;1.90;;;18.70;99.90;;;;;;5049272;28;20228;-79
2022/09/26 08:44:45;;;;;;;2.63;1.80;;;18.80;99.90;;;;;;5043780;28;20208;-79
2022/09/26 08:47:27;;;;;;;3.03;1.70;;;18.70;99.90;;;;;;5050055;28;20201;-79
2022/09/26 08:50:08;;;;;;;4.82;1.90;;;18.70;99.90;;;;;;5031284;28;20235;-79
2022/09/26 08:52:43;;;;;;;2.70;1.80;;;18.70;99.90;;;;;;5046251;28;20223;-79
2022/09/26 08:55:19;;;;;;;5.75;2.33;;;18.70;99.90;;;;;;5039308;28;20197;-80
2022/09/26 08:57:52;;;;;;;3.47;2.00;;;18.70;99.90;;;;;;5031844;28;20675;-79
2022/09/26 09:00:26;;;;;;;3.80;1.92;;;18.60;99.90;;;;;;5045833;28;20216;-79
2022/09/26 09:03:07;;;;;;;4.30;2.05;;;18.70;99.90;;;;;;5039219;28;20209;-79
2022/09/26 09:05:40;;;;;;;3.60;2.13;;;18.70;99.90;;;;;;5031398;28;20204;-80
2022/09/26 09:08:20;;;;;;;4.50;2.25;;;18.60;99.90;;;;;;5030988;28;20204;-82
2022/09/26 09:11:00;;;;;;;3.97;2.00;;;18.60;99.90;;;;;;5035127;28;20658;-79
2022/09/26 09:13:44;;;;;;;2.58;1.75;;;18.60;99.90;;;;;;5040550;28;20797;-79
2022/09/26 09:16:29;;;;;;;4.63;2.00;;;18.60;99.90;;;;;;5036663;28;20199;-79
2022/09/26 09:19:09;;;;;;;5.22;2.15;;;18.60;99.90;;;;;;5047197;28;20196;-78
2022/09/26 09:21:50;;;;;;;3.97;1.90;;;18.60;99.90;;;;;;5044439;28;20252;-78
2022/09/26 09:24:29;;;;;;;3.05;1.60;;;18.50;99.90;;;;;;5041656;28;20196;-78
2022/09/26 09:27:13;;;;;;;8.18;1.90;;;18.50;99.90;;;;;;5052034;28;20197;-78
2022/09/26 09:29:58;;;;;;;4.20;2.28;;;18.50;99.90;;;;;;5044410;28;20201;-78
2022/09/26 09:32:40;;;;;;;2.67;1.60;;;18.60;99.90;;;;;;5037912;28;20656;-79
2022/09/26 09:35:15;;;;;;;4.85;1.58;;;18.50;99.90;;;;;;5034583;28;20691;-79
2022/09/26 09:37:50;;;;;;;3.10;1.67;;;18.50;99.90;;;;;;5043308;28;20200;-79
2022/09/26 09:40:28;;;;;;;2.88;1.80;;;18.50;99.90;;;;;;5036634;28;20277;-79
2022/09/26 09:43:04;;;;;;;2.80;1.70;;;18.50;99.90;;;;;;5027618;28;20201;-77
2022/09/26 09:45:41;;;;;;;4.20;1.98;;;18.50;99.90;;;;;;5029533;28;20212;-78
2022/09/26 09:48:16;;;;;;;3.40;1.67;;;18.50;99.90;;;;;;5028421;28;20212;-78
2022/09/26 09:50:58;;;;;;;6.93;2.17;;;18.60;99.90;;;;;;5031984;28;20204;-78
2022/09/26 09:53:50;;;;;;;3.72;1.98;;;18.50;99.90;;;;;;5027435;28;20236;-78
2022/09/26 09:56:41;;;;;;;4.63;1.95;;;18.60;99.90;;;;;;5033963;28;20220;-79
2022/09/26 10:00:08;;;;;;;3.00;1.95;;;18.50;99.90;;;;;;5042182;28;20224;-80
2022/09/26 10:02:49;;;;;;;7.65;2.30;;;18.60;99.90;;;;;;5048158;28;20205;-79
2022/09/26 10:05:33;;;;;;;7.15;2.00;;;18.60;99.90;;;;;;5035134;28;21124;-79
2022/09/26 10:08:20;;;;;;;3.85;1.80;;;18.60;99.90;;;;;;5032074;28;20560;-79
2022/09/26 10:10:58;;;;;;;4.05;1.70;;;18.60;99.90;;;;;;5031351;28;20207;-77
2022/09/26 10:13:30;;;;;;;4.32;1.70;;;18.60;99.90;;;;;;5029991;28;20220;-78
2022/09/26 10:16:03;;;;;;;4.20;1.70;;;18.60;99.90;;;;;;5032177;28;20216;-78
2022/09/26 10:18:55;;;;;;;6.30;1.65;;;18.50;99.90;;;;;;5036945;28;20224;-78
2022/09/26 10:21:38;;;;;;;2.42;1.70;;;18.60;99.90;;;;;;5052183;28;20321;-78
2022/09/26 10:24:22;;;;;;;3.92;1.88;;;18.60;99.90;;;;;;5050157;28;20196;-78
2022/09/26 10:26:53;;;;;;;3.60;1.88;;;18.60;99.90;;;;;;5050137;28;20248;-78
2022/09/26 10:29:32;;;;;;;4.43;2.10;;;18.60;99.90;;;;;;5035226;28;20193;-78
2022/09/26 10:32:08;;;;;;;3.55;1.73;;;18.60;99.90;;;;;;5032934;28;20227;-79
2022/09/26 10:34:41;;;;;;;5.13;1.95;;;18.60;99.90;;;;;;5044864;28;20306;-78
2022/09/26 10:40:49;;;;;;;5.82;2.15;;;18.50;99.90;;;;;;5051258;28;20225;-79
2022/09/26 10:43:27;;;;;;;4.32;1.80;;;18.50;99.90;;;;;;5060998;28;20203;-78
2022/09/26 10:46:13;;;;;;;3.35;1.75;;;18.50;99.90;;;;;;5057875;28;20303;-79
2022/09/26 10:48:48;;;;;;;3.25;1.60;;;18.50;99.90;;;;;;5038265;28;21595;-80
2022/09/26 10:51:28;;;;;;;5.22;1.70;;;18.50;99.90;;;;;;5031289;28;20822;-76
2022/09/26 10:54:05;;;;;;;4.43;1.90;;;18.50;99.90;;;;;;5033144;28;20652;-77
2022/09/26 10:56:44;;;;;;;3.15;1.70;;;18.50;99.90;;;;;;5034120;28;20220;-77
2022/09/26 10:59:17;;;;;;;2.28;1.63;;;18.50;99.90;;;;;;5030291;28;20285;-78
2022/09/26 11:01:58;;;;;;;4.22;1.92;;;18.50;99.90;;;;;;5039228;28;20224;-79
2022/09/26 11:07:24;;;;;;;3.50;1.70;;;18.50;99.90;;;;;;5051255;28;20269;-77
2022/09/26 11:10:03;;;;;;;2.85;1.73;;;18.50;99.90;;;;;;5048466;28;20201;-79
2022/09/26 11:12:38;;;;;;;6.63;1.98;;;18.40;99.90;;;;;;5031106;28;20210;-79
2022/09/26 11:15:17;;;;;;;3.40;1.95;;;18.40;99.90;;;;;;5035376;28;20200;-80
2022/09/26 11:17:56;;;;;;;3.72;1.55;;;18.50;99.90;;;;;;5029953;28;20239;-76
2022/09/26 11:20:45;;;;;;;3.78;1.88;;;18.50;99.90;;;;;;5035945;28;20299;-79
2022/09/26 11:23:37;;;;;;;3.55;1.73;;;18.40;99.90;;;;;;5034577;28;20197;-80
2022/09/26 11:26:21;;;;;;;3.78;1.50;;;18.40;99.90;;;;;;5031461;28;20693;-78
2022/09/26 11:28:56;;;;;;;6.15;2.10;;;18.40;99.90;;;;;;5035354;28;20215;-78
2022/09/26 11:31:30;;;;;;;4.75;1.73;;;18.40;99.90;;;;;;5034056;28;20227;-78
2022/09/26 11:34:04;;;;;;;2.88;1.70;;;18.40;99.90;;;;;;5032455;28;20558;-79
2022/09/26 11:36:50;;;;;;;5.43;2.00;;;18.40;99.90;;;;;;5033760;28;20200;-77
2022/09/26 11:39:38;;;;;;;6.10;1.80;;;18.40;99.90;;;;;;5035279;28;20200;-76
2022/09/26 11:42:32;;;;;;;3.75;1.65;;;18.40;99.90;;;;;;5034590;28;20707;-78
2022/09/26 11:45:16;;;;;;;5.20;1.92;;;18.30;99.90;;;;;;5034490;28;20227;-79
2022/09/26 11:48:05;;;;;;;3.78;1.90;;;18.30;99.90;;;;;;5037668;28;20294;-78
2022/09/26 11:50:47;;;;;;;3.80;2.00;;;18.30;99.90;;;;;;5033053;28;20269;-79
2022/09/26 11:53:39;;;;;;;2.95;1.60;;;18.30;99.90;;;;;;5039675;28;20231;-78
2022/09/26 11:56:33;;;;;;;4.00;1.70;;;18.30;99.90;;;;;;5034858;28;20271;-78
2022/09/26 11:59:20;;;;;;;5.10;1.98;;;18.30;99.90;;;;;;5029867;28;20234;-77
2022/09/26 12:02:02;;;;;;;3.42;1.70;;;18.30;99.90;;;;;;5038338;28;20712;-78
2022/09/26 12:04:52;;;;;;;3.15;1.55;;;18.30;99.90;;;;;;5038225;28;20627;-78
2022/09/26 12:07:31;;;;;;;3.30;1.50;;;18.30;99.90;;;;;;5032878;28;20418;-78
2022/09/26 12:10:15;;;;;;;3.97;1.80;;;18.30;99.90;;;;;;5038815;28;20207;-78
2022/09/26 12:12:55;;;;;;;3.63;1.85;;;18.30;99.90;;;;;;5049028;28;20188;-78
2022/09/26 12:15:33;;;;;;;3.35;1.77;;;18.30;99.90;;;;;;5045147;28;20211;-79
2022/09/26 12:18:14;;;;;;;3.88;1.75;;;18.30;99.90;;;;;;5037930;28;20197;-78
2022/09/26 12:20:58;;;;;;;3.00;1.70;;;18.30;99.90;;;;;;5031086;28;20236;-78
2022/09/26 12:23:35;;;;;;;3.53;1.70;;;18.30;99.90;;;;;;5030409;28;20207;-78
2022/09/26 12:26:16;;;;;;;3.95;1.85;;;18.30;99.90;;;;;;5035210;28;20209;-78
2022/09/26 12:29:09;;;;;;;4.72;1.60;;;18.30;99.90;;;;;;5033753;28;20196;-78
2022/09/26 12:31:53;;;;;;;3.78;1.80;;;18.20;99.90;;;;;;5031640;28;20228;-79
2022/09/26 12:34:43;;;;;;;3.45;1.92;;;18.20;99.90;;;;;;5035434;28;20247;-77
2022/09/26 12:37:40;;;;;;;3.03;1.80;;;18.20;99.90;;;;;;5027717;28;20740;-78
2022/09/26 12:40:35;;;;;;;3.30;1.50;;;18.20;99.90;;;;;;5033367;28;20195;-78
2022/09/26 12:43:34;;;;;;;4.80;2.00;;;18.20;99.90;;;;;;5039994;28;20275;-80
2022/09/26 12:46:27;;;;;;;3.50;1.83;;;18.30;99.90;;;;;;5032088;28;20201;-80
2022/09/26 12:49:24;;;;;;;3.60;1.98;;;18.20;99.90;;;;;;5032001;28;20193;-78
2022/09/26 12:51:57;;;;;;;4.47;2.00;;;18.30;99.90;;;;;;5033987;28;20200;-78
2022/09/26 12:55:06;;;;;;;5.25;1.70;;;18.20;99.90;;;;;;5033990;28;20272;-78
2022/09/26 12:57:49;;;;;;;6.18;2.60;;;18.20;99.90;;;;;;4963150;28;20199;-79
2022/09/26 13:00:22;;;;;;;5.45;1.65;;;18.20;99.90;;;;;;5031327;28;20250;-79
2022/09/26 13:03:23;;;;;;;3.65;2.00;;;18.20;99.90;;;;;;5030135;28;20248;-78
2022/09/26 13:06:34;;;;;;;3.00;1.67;;;18.10;99.90;;;;;;5029042;28;20195;-78
2022/09/26 13:09:22;;;;;;;3.90;1.80;;;18.10;99.90;;;;;;5031121;28;20207;-79
2022/09/26 13:12:03;;;;;;;4.32;1.90;;;18.10;99.90;;;;;;5031179;28;20229;-79
2022/09/26 13:14:49;;;;;;;5.40;1.65;;;18.00;99.90;;;;;;5036732;28;20260;-79
2022/09/26 13:17:23;;;;;;;3.75;1.92;;;18.00;99.90;;;;;;5050254;28;20216;-79
2022/09/26 13:19:59;;;;;;;2.47;1.73;;;18.00;99.90;;;;;;5029607;28;20200;-79
2022/09/26 13:22:38;;;;;;;5.25;1.75;;;18.00;99.90;;;;;;5030993;28;20231;-79
2022/09/26 13:25:18;;;;;;;4.53;1.95;;;17.90;99.90;;;;;;5026254;28;20582;-79
2022/09/26 13:27:56;;;;;;;5.28;1.70;;;17.90;99.90;;;;;;5025476;28;20203;-79
2022/09/26 13:30:34;;;;;;;3.85;1.80;;;17.90;99.90;;;;;;5024370;28;20205;-79
2022/09/26 13:33:17;;;;;;;4.63;1.80;;;17.90;99.90;;;;;;5024526;28;20204;-79
2022/09/26 13:35:50;;;;;;;7.50;2.08;;;17.90;99.90;;;;;;5023148;28;20215;-79
2022/09/26 13:38:38;;;;;;;4.30;2.30;;;17.90;99.90;;;;;;5023824;28;20291;-79
2022/09/26 13:41:29;;;;;;;7.70;1.85;;;17.90;99.90;;;;;;5026052;28;20267;-78
2022/09/26 13:44:10;;;;;;;5.22;2.10;;;17.80;99.90;;;;;;5024392;28;20193;-79
2022/09/26 13:46:53;;;;;;;4.35;1.52;;;17.80;99.90;;;;;;5024596;28;20207;-79
2022/09/26 13:49:36;;;;;;;4.20;2.03;;;17.80;99.90;;;;;;5024530;28;20207;-78
2022/09/26 13:52:34;;;;;;;7.18;2.38;;;17.80;99.90;;;;;;5030172;28;20209;-79